sensor_id;sensor_type;location;lat;lon;timestamp;pressure;altitude;pressure_sealevel;temperature;humidity
24104;BME280;12278;53.058;9.028;2022-08-19T00:00:40;101021.00;;;18.37;100.00
24104;BME280;12278;53.058;9.028;2022-08-19T00:04:41;101028.78;;;18.11;100.00
24104;BME280;12278;53.058;9.028;2022-08-19T00:08:43;101021.78;;;18.00;100.00
24104;BME280;12278;53.058;9.028;2022-08-19T00:12:44;101029.50;;;18.19;100.00
24104;BME280;12278;53.058;9.028;2022-08-19T00:16:47;101023.31;;;18.14;100.00
24104;BME280;12278;53.058;9.028;2022-08-19T00:20:48;101025.25;;;18.08;100.00
24104;BME280;12278;53.058;9.028;2022-08-19T00:24:49;101033.06;;;18.21;100.00
24104;BME280;12278;53.058;9.028;2022-08-19T00:28:50;101027.53;;;18.27;100.00
24104;BME280;12278;53.058;9.028;2022-08-19T00:32:51;101030.22;;;18.28;100.00
24104;BME280;12278;53.058;9.028;2022-08-19T00:36:52;101017.75;;;18.23;100.00
24104;BME280;12278;53.058;9.028;2022-08-19T00:40:53;101029.50;;;18.19;100.00
24104;BME280;12278;53.058;9.028;2022-08-19T00:44:55;101016.13;;;18.14;100.00
24104;BME280;12278;53.058;9.028;2022-08-19T00:48:56;101022.09;;;18.28;100.00
24104;BME280;12278;53.058;9.028;2022-08-19T00:52:58;101025.72;;;18.27;100.00
24104;BME280;12278;53.058;9.028;2022-08-19T00:57:05;101018.63;;;18.23;100.00
24104;BME280;12278;53.058;9.028;2022-08-19T01:01:07;101020.19;;;18.33;100.00
24104;BME280;12278;53.058;9.028;2022-08-19T01:05:15;101020.19;;;18.33;100.00
24104;BME280;12278;53.058;9.028;2022-08-19T01:09:16;101018.44;;;18.31;100.00
24104;BME280;12278;53.058;9.028;2022-08-19T01:13:25;101011.19;;;18.33;100.00
24104;BME280;12278;53.058;9.028;2022-08-19T01:17:27;101002.84;;;18.45;100.00
24104;BME280;12278;53.058;9.028;2022-08-19T01:21:34;100998.06;;;18.56;100.00
24104;BME280;12278;53.058;9.028;2022-08-19T01:25:44;100989.19;;;18.51;100.00
24104;BME280;12278;53.058;9.028;2022-08-19T01:29:46;100991.09;;;18.46;100.00
24104;BME280;12278;53.058;9.028;2022-08-19T01:33:48;100978.66;;;18.39;100.00
24104;BME280;12278;53.058;9.028;2022-08-19T01:38:01;100974.06;;;18.44;100.00
24104;BME280;12278;53.058;9.028;2022-08-19T01:42:08;100963.34;;;18.39;100.00
24104;BME280;12278;53.058;9.028;2022-08-19T01:46:12;100967.72;;;18.45;100.00
24104;BME280;12278;53.058;9.028;2022-08-19T01:50:13;100954.63;;;18.28;100.00
24104;BME280;12278;53.058;9.028;2022-08-19T01:54:17;100966.28;;;18.30;100.00
24104;BME280;12278;53.058;9.028;2022-08-19T01:58:24;100963.25;;;18.44;100.00
24104;BME280;12278;53.058;9.028;2022-08-19T02:02:26;100961.38;;;18.48;100.00
24104;BME280;12278;53.058;9.028;2022-08-19T02:06:28;100970.25;;;18.53;100.00
24104;BME280;12278;53.058;9.028;2022-08-19T02:10:29;100963.69;;;18.64;100.00
24104;BME280;12278;53.058;9.028;2022-08-19T02:14:33;100968.84;;;18.75;100.00
24104;BME280;12278;53.058;9.028;2022-08-19T02:18:34;100954.47;;;18.73;100.00
24104;BME280;12278;53.058;9.028;2022-08-19T02:22:35;100945.31;;;18.80;100.00
24104;BME280;12278;53.058;9.028;2022-08-19T02:26:36;100937.53;;;18.66;100.00
24104;BME280;12278;53.058;9.028;2022-08-19T02:30:38;100921.50;;;18.59;100.00
24104;BME280;12278;53.058;9.028;2022-08-19T02:34:42;100934.72;;;18.71;100.00
24104;BME280;12278;53.058;9.028;2022-08-19T02:38:44;100923.31;;;18.58;100.00
24104;BME280;12278;53.058;9.028;2022-08-19T02:42:46;100937.66;;;18.60;100.00
24104;BME280;12278;53.058;9.028;2022-08-19T02:46:48;100935.75;;;18.65;100.00
24104;BME280;12278;53.058;9.028;2022-08-19T02:50:52;100940.16;;;18.70;100.00
24104;BME280;12278;53.058;9.028;2022-08-19T02:54:55;100936.50;;;18.72;100.00
24104;BME280;12278;53.058;9.028;2022-08-19T02:58:58;100921.25;;;18.70;100.00
24104;BME280;12278;53.058;9.028;2022-08-19T03:02:59;100927.50;;;18.72;100.00
24104;BME280;12278;53.058;9.028;2022-08-19T03:07:01;100940.16;;;18.70;100.00
24104;BME280;12278;53.058;9.028;2022-08-19T03:11:02;100949.28;;;18.65;100.00
24104;BME280;12278;53.058;9.028;2022-08-19T03:15:06;100947.63;;;18.57;100.00
24104;BME280;12278;53.058;9.028;2022-08-19T03:19:08;100950.31;;;18.58;100.00
24104;BME280;12278;53.058;9.028;2022-08-19T03:23:09;100960.31;;;18.53;100.00
24104;BME280;12278;53.058;9.028;2022-08-19T03:27:10;100952.75;;;18.32;100.00
24104;BME280;12278;53.058;9.028;2022-08-19T03:31:13;100954.66;;;18.27;100.00
24104;BME280;12278;53.058;9.028;2022-08-19T03:35:15;100944.91;;;18.20;100.00
24104;BME280;12278;53.058;9.028;2022-08-19T03:39:17;100952.00;;;18.25;100.00
24104;BME280;12278;53.058;9.028;2022-08-19T03:43:18;100961.69;;;18.34;100.00
24104;BME280;12278;53.058;9.028;2022-08-19T03:47:19;100969.91;;;18.29;100.00
24104;BME280;12278;53.058;9.028;2022-08-19T03:51:32;100965.47;;;18.27;100.00
24104;BME280;12278;53.058;9.028;2022-08-19T03:55:33;100965.50;;;18.25;100.00
24104;BME280;12278;53.058;9.028;2022-08-19T03:59:36;100986.25;;;18.22;100.00
24104;BME280;12278;53.058;9.028;2022-08-19T04:03:39;100996.13;;;18.24;100.00
24104;BME280;12278;53.058;9.028;2022-08-19T04:07:40;100987.16;;;18.21;100.00
24104;BME280;12278;53.058;9.028;2022-08-19T04:11:50;100979.97;;;18.21;100.00
24104;BME280;12278;53.058;9.028;2022-08-19T04:15:54;100978.91;;;18.28;100.00
24104;BME280;12278;53.058;9.028;2022-08-19T04:19:54;100976.50;;;18.16;100.00
24104;BME280;12278;53.058;9.028;2022-08-19T04:23:57;100973.69;;;18.21;100.00
24104;BME280;12278;53.058;9.028;2022-08-19T04:27:58;100975.44;;;18.22;100.00
24104;BME280;12278;53.058;9.028;2022-08-19T04:31:59;100975.00;;;18.43;100.00
24104;BME280;12278;53.058;9.028;2022-08-19T04:36:00;100981.31;;;18.42;100.00
24104;BME280;12278;53.058;9.028;2022-08-19T04:40:04;100983.94;;;18.45;100.00
24104;BME280;12278;53.058;9.028;2022-08-19T04:44:43;100971.44;;;18.39;99.86
24104;BME280;12278;53.058;9.028;2022-08-19T04:48:44;100969.94;;;18.28;100.00
24104;BME280;12278;53.058;9.028;2022-08-19T04:52:45;100966.97;;;18.38;100.00
24104;BME280;12278;53.058;9.028;2022-08-19T04:56:46;100976.09;;;18.33;100.00
24104;BME280;12278;53.058;9.028;2022-08-19T05:00:47;100977.19;;;18.26;100.00
24104;BME280;12278;53.058;9.028;2022-08-19T05:04:48;100977.25;;;18.23;100.00
24104;BME280;12278;53.058;9.028;2022-08-19T05:08:49;100977.06;;;18.30;100.00
24104;BME280;12278;53.058;9.028;2022-08-19T05:12:50;100992.00;;;18.47;100.00
24104;BME280;12278;53.058;9.028;2022-08-19T05:16:51;100988.41;;;18.46;99.35
24104;BME280;12278;53.058;9.028;2022-08-19T05:20:52;100996.50;;;18.46;99.54
24104;BME280;12278;53.058;9.028;2022-08-19T05:25:17;100993.44;;;18.23;99.41
24104;BME280;12278;53.058;9.028;2022-08-19T05:29:22;101001.28;;;18.33;100.00
24104;BME280;12278;53.058;9.028;2022-08-19T05:33:23;101005.47;;;18.48;100.00
24104;BME280;12278;53.058;9.028;2022-08-19T05:37:24;100996.28;;;18.55;100.00
24104;BME280;12278;53.058;9.028;2022-08-19T05:41:28;100995.03;;;18.72;99.37
24104;BME280;12278;53.058;9.028;2022-08-19T05:45:29;100989.66;;;18.70;98.59
24104;BME280;12278;53.058;9.028;2022-08-19T05:49:32;100993.09;;;18.78;98.03
24104;BME280;12278;53.058;9.028;2022-08-19T05:53:36;101001.47;;;18.66;99.30
24104;BME280;12278;53.058;9.028;2022-08-19T05:57:37;100992.53;;;18.64;100.00
24104;BME280;12278;53.058;9.028;2022-08-19T06:01:42;100993.38;;;18.66;100.00
24104;BME280;12278;53.058;9.028;2022-08-19T06:05:43;100992.75;;;18.92;100.00
24104;BME280;12278;53.058;9.028;2022-08-19T06:09:44;101009.56;;;19.03;97.82
24104;BME280;12278;53.058;9.028;2022-08-19T06:13:48;101000.00;;;18.88;98.04
24104;BME280;12278;53.058;9.028;2022-08-19T06:17:51;100999.47;;;18.74;99.49
24104;BME280;12278;53.058;9.028;2022-08-19T06:21:52;101011.94;;;18.80;100.00
24104;BME280;12278;53.058;9.028;2022-08-19T06:25:53;101001.63;;;18.57;100.00
24104;BME280;12278;53.058;9.028;2022-08-19T06:29:55;101000.66;;;18.61;100.00
24104;BME280;12278;53.058;9.028;2022-08-19T06:33:57;101012.28;;;18.66;100.00
24104;BME280;12278;53.058;9.028;2022-08-19T06:37:58;101026.16;;;18.88;100.00
24104;BME280;12278;53.058;9.028;2022-08-19T06:42:05;101028.34;;;19.08;99.77
24104;BME280;12278;53.058;9.028;2022-08-19T06:46:14;101028.75;;;18.92;98.26
24104;BME280;12278;53.058;9.028;2022-08-19T06:50:18;101031.09;;;19.06;98.11
24104;BME280;12278;53.058;9.028;2022-08-19T06:54:21;101048.56;;;19.64;96.14
24104;BME280;12278;53.058;9.028;2022-08-19T06:58:23;101049.34;;;20.00;95.44
24104;BME280;12278;53.058;9.028;2022-08-19T07:02:24;101044.44;;;20.13;92.41
24104;BME280;12278;53.058;9.028;2022-08-19T07:06:29;101050.38;;;20.26;91.22
24104;BME280;12278;53.058;9.028;2022-08-19T07:10:31;101050.09;;;20.36;88.85
24104;BME280;12278;53.058;9.028;2022-08-19T07:14:34;101061.44;;;20.78;90.84
24104;BME280;12278;53.058;9.028;2022-08-19T07:18:39;101060.53;;;20.78;85.54
24104;BME280;12278;53.058;9.028;2022-08-19T07:22:42;101060.66;;;20.75;86.17
24104;BME280;12278;53.058;9.028;2022-08-19T07:26:43;101066.22;;;20.98;84.77
24104;BME280;12278;53.058;9.028;2022-08-19T07:30:44;101076.09;;;21.55;84.04
24104;BME280;12278;53.058;9.028;2022-08-19T07:34:45;101086.25;;;22.00;85.79
24104;BME280;12278;53.058;9.028;2022-08-19T07:38:50;101085.44;;;22.46;80.12
24104;BME280;12278;53.058;9.028;2022-08-19T07:42:52;101097.78;;;22.32;79.59
24104;BME280;12278;53.058;9.028;2022-08-19T07:46:56;101087.47;;;22.16;78.46
24104;BME280;12278;53.058;9.028;2022-08-19T07:51:02;101078.59;;;21.86;76.86
24104;BME280;12278;53.058;9.028;2022-08-19T07:55:06;101082.56;;;21.25;77.72
24104;BME280;12278;53.058;9.028;2022-08-19T07:59:07;101076.22;;;20.68;80.06
24104;BME280;12278;53.058;9.028;2022-08-19T08:03:11;101093.09;;;21.34;81.08
24104;BME280;12278;53.058;9.028;2022-08-19T08:07:13;101117.34;;;22.65;80.06
24104;BME280;12278;53.058;9.028;2022-08-19T08:11:33;101109.72;;;22.98;75.68
24104;BME280;12278;53.058;9.028;2022-08-19T08:15:34;101120.59;;;23.85;70.59
24104;BME280;12278;53.058;9.028;2022-08-19T08:19:37;101125.28;;;24.22;67.65
24104;BME280;12278;53.058;9.028;2022-08-19T08:23:38;101117.72;;;24.29;68.52
24104;BME280;12278;53.058;9.028;2022-08-19T08:27:42;101122.78;;;24.18;68.93
24104;BME280;12278;53.058;9.028;2022-08-19T08:31:44;101120.66;;;24.24;68.69
24104;BME280;12278;53.058;9.028;2022-08-19T08:35:45;101112.97;;;24.14;66.91
24104;BME280;12278;53.058;9.028;2022-08-19T08:39:47;101101.38;;;23.68;68.17
24104;BME280;12278;53.058;9.028;2022-08-19T08:43:51;101095.06;;;22.78;71.92
24104;BME280;12278;53.058;9.028;2022-08-19T08:47:57;101099.53;;;22.58;73.93
24104;BME280;12278;53.058;9.028;2022-08-19T08:52:28;101110.22;;;22.14;73.84
24104;BME280;12278;53.058;9.028;2022-08-19T08:56:31;101117.28;;;22.43;76.06
24104;BME280;12278;53.058;9.028;2022-08-19T09:00:40;101119.53;;;22.55;75.11
24104;BME280;12278;53.058;9.028;2022-08-19T09:04:43;101107.25;;;22.45;74.36
24104;BME280;12278;53.058;9.028;2022-08-19T09:17:31;101120.38;;;23.69;73.90
24104;BME280;12278;53.058;9.028;2022-08-19T09:21:34;101101.25;;;23.71;69.95
24104;BME280;12278;53.058;9.028;2022-08-19T09:25:35;101091.50;;;23.22;71.60
24104;BME280;12278;53.058;9.028;2022-08-19T09:29:36;101084.63;;;22.91;72.38
24104;BME280;12278;53.058;9.028;2022-08-19T09:33:37;101091.38;;;23.03;72.08
24104;BME280;12278;53.058;9.028;2022-08-19T09:37:38;101097.66;;;23.27;73.29
24104;BME280;12278;53.058;9.028;2022-08-19T09:41:39;101103.78;;;23.32;72.02
24104;BME280;12278;53.058;9.028;2022-08-19T09:45:40;101109.03;;;23.36;71.04
24104;BME280;12278;53.058;9.028;2022-08-19T09:49:41;101113.44;;;23.62;71.86
24104;BME280;12278;53.058;9.028;2022-08-19T09:53:47;101117.56;;;24.12;72.01
24104;BME280;12278;53.058;9.028;2022-08-19T09:57:53;101105.41;;;24.20;68.13
24104;BME280;12278;53.058;9.028;2022-08-19T10:01:55;101103.63;;;24.40;68.62
24104;BME280;12278;53.058;9.028;2022-08-19T10:05:58;101103.56;;;24.41;69.56
24104;BME280;12278;53.058;9.028;2022-08-19T10:09:59;101095.66;;;24.35;68.37
24104;BME280;12278;53.058;9.028;2022-08-19T10:14:02;101096.69;;;24.32;65.84
24104;BME280;12278;53.058;9.028;2022-08-19T10:18:03;101080.31;;;24.12;68.66
24104;BME280;12278;53.058;9.028;2022-08-19T10:22:06;101093.94;;;24.53;69.95
24104;BME280;12278;53.058;9.028;2022-08-19T10:26:07;101096.81;;;24.69;68.01
24104;BME280;12278;53.058;9.028;2022-08-19T10:30:09;101097.25;;;25.35;66.29
24104;BME280;12278;53.058;9.028;2022-08-19T10:34:10;101093.41;;;25.56;65.13
24104;BME280;12278;53.058;9.028;2022-08-19T10:38:11;101086.59;;;25.99;66.39
24104;BME280;12278;53.058;9.028;2022-08-19T10:42:12;101091.34;;;25.96;63.71
24104;BME280;12278;53.058;9.028;2022-08-19T10:46:15;101085.34;;;25.89;60.51
24104;BME280;12278;53.058;9.028;2022-08-19T10:50:16;101075.41;;;25.35;61.76
24104;BME280;12278;53.058;9.028;2022-08-19T10:54:35;101082.03;;;26.00;63.94
24104;BME280;12278;53.058;9.028;2022-08-19T10:58:55;101090.72;;;26.58;62.91
24104;BME280;12278;53.058;9.028;2022-08-19T11:02:58;101084.44;;;26.88;62.38
24104;BME280;12278;53.058;9.028;2022-08-19T11:06:59;101076.38;;;27.02;61.49
24104;BME280;12278;53.058;9.028;2022-08-19T11:11:01;101069.19;;;26.99;60.42
24104;BME280;12278;53.058;9.028;2022-08-19T11:15:04;101067.28;;;27.01;58.27
24104;BME280;12278;53.058;9.028;2022-08-19T11:19:07;101057.91;;;26.74;59.27
24104;BME280;12278;53.058;9.028;2022-08-19T11:23:11;101048.94;;;26.55;58.49
24104;BME280;12278;53.058;9.028;2022-08-19T11:27:12;101055.59;;;26.66;57.09
24104;BME280;12278;53.058;9.028;2022-08-19T11:31:22;101054.09;;;26.61;55.55
24104;BME280;12278;53.058;9.028;2022-08-19T11:35:23;101072.34;;;27.39;60.91
24104;BME280;12278;53.058;9.028;2022-08-19T11:39:27;101063.25;;;27.39;55.19
24104;BME280;12278;53.058;9.028;2022-08-19T11:43:29;101066.28;;;27.34;54.97
24104;BME280;12278;53.058;9.028;2022-08-19T11:47:30;101070.16;;;27.76;52.42
24104;BME280;12278;53.058;9.028;2022-08-19T11:51:32;101055.84;;;28.01;52.59
24104;BME280;12278;53.058;9.028;2022-08-19T11:55:38;101050.25;;;28.46;52.79
24104;BME280;12278;53.058;9.028;2022-08-19T11:59:40;101034.16;;;28.12;49.97
24104;BME280;12278;53.058;9.028;2022-08-19T12:03:43;101038.44;;;28.44;52.61
24104;BME280;12278;53.058;9.028;2022-08-19T12:07:44;101027.00;;;28.52;49.23
24104;BME280;12278;53.058;9.028;2022-08-19T12:11:46;101024.47;;;28.49;51.35
24104;BME280;12278;53.058;9.028;2022-08-19T12:15:47;101019.28;;;28.30;50.71
24104;BME280;12278;53.058;9.028;2022-08-19T12:19:48;101042.25;;;28.85;50.58
24104;BME280;12278;53.058;9.028;2022-08-19T12:23:51;101037.66;;;29.39;50.50
24104;BME280;12278;53.058;9.028;2022-08-19T12:27:52;101038.88;;;29.08;48.58
24104;BME280;12278;53.058;9.028;2022-08-19T12:31:52;101044.41;;;29.48;48.85
24104;BME280;12278;53.058;9.028;2022-08-19T12:35:54;101031.03;;;29.29;50.46
24104;BME280;12278;53.058;9.028;2022-08-19T12:39:55;101023.13;;;29.51;49.79
24104;BME280;12278;53.058;9.028;2022-08-19T12:43:55;101017.19;;;29.30;48.47
24104;BME280;12278;53.058;9.028;2022-08-19T12:47:56;101017.75;;;29.62;49.26
24104;BME280;12278;53.058;9.028;2022-08-19T12:51:57;101015.22;;;29.32;46.85
24104;BME280;12278;53.058;9.028;2022-08-19T12:56:01;101012.91;;;29.26;49.38
24104;BME280;12278;53.058;9.028;2022-08-19T13:00:14;101012.03;;;29.65;47.43
24104;BME280;12278;53.058;9.028;2022-08-19T13:04:15;101016.19;;;30.11;49.02
24104;BME280;12278;53.058;9.028;2022-08-19T13:08:17;101012.63;;;30.34;47.75
24104;BME280;12278;53.058;9.028;2022-08-19T13:12:17;101021.06;;;30.69;47.68
24104;BME280;12278;53.058;9.028;2022-08-19T13:16:20;101009.97;;;30.95;44.26
24104;BME280;12278;53.058;9.028;2022-08-19T13:20:22;101008.00;;;31.44;43.45
24104;BME280;12278;53.058;9.028;2022-08-19T13:24:23;101001.63;;;31.44;43.48
24104;BME280;12278;53.058;9.028;2022-08-19T13:28:24;100998.63;;;31.23;44.04
24104;BME280;12278;53.058;9.028;2022-08-19T13:32:25;101002.03;;;31.97;41.94
24104;BME280;12278;53.058;9.028;2022-08-19T13:36:44;101007.31;;;32.89;40.37
24104;BME280;12278;53.058;9.028;2022-08-19T13:40:46;101017.94;;;33.48;38.27
24104;BME280;12278;53.058;9.028;2022-08-19T13:44:53;101009.69;;;34.82;38.89
24104;BME280;12278;53.058;9.028;2022-08-19T13:48:54;101000.47;;;34.62;38.58
24104;BME280;12278;53.058;9.028;2022-08-19T13:52:55;101001.50;;;35.30;36.91
24104;BME280;12278;53.058;9.028;2022-08-19T13:56:56;101012.91;;;35.94;36.60
24104;BME280;12278;53.058;9.028;2022-08-19T14:00:57;101033.66;;;37.47;35.13
24104;BME280;12278;53.058;9.028;2022-08-19T14:04:59;101028.72;;;37.59;33.72
24104;BME280;12278;53.058;9.028;2022-08-19T14:09:03;101030.88;;;37.83;33.19
24104;BME280;12278;53.058;9.028;2022-08-19T14:13:04;101024.34;;;38.70;31.33
24104;BME280;12278;53.058;9.028;2022-08-19T14:17:06;101020.16;;;39.08;30.50
24104;BME280;12278;53.058;9.028;2022-08-19T14:21:14;101027.34;;;39.35;30.17
24104;BME280;12278;53.058;9.028;2022-08-19T14:25:21;100993.16;;;36.81;32.25
24104;BME280;12278;53.058;9.028;2022-08-19T14:29:22;100998.63;;;37.98;29.79
24104;BME280;12278;53.058;9.028;2022-08-19T14:33:23;101024.94;;;39.56;29.10
24104;BME280;12278;53.058;9.028;2022-08-19T14:37:23;101029.47;;;40.30;27.62
24104;BME280;12278;53.058;9.028;2022-08-19T14:41:24;101025.25;;;40.34;25.85
24104;BME280;12278;53.058;9.028;2022-08-19T14:45:27;101043.28;;;40.87;27.45
24104;BME280;12278;53.058;9.028;2022-08-19T14:49:28;101022.16;;;40.77;26.01
24104;BME280;12278;53.058;9.028;2022-08-19T14:53:29;101041.97;;;41.06;27.81
24104;BME280;12278;53.058;9.028;2022-08-19T14:57:30;101032.69;;;40.66;27.33
24104;BME280;12278;53.058;9.028;2022-08-19T15:01:31;101033.16;;;40.78;27.66
24104;BME280;12278;53.058;9.028;2022-08-19T15:05:32;101042.16;;;41.36;27.78
24104;BME280;12278;53.058;9.028;2022-08-19T15:09:34;101042.97;;;41.13;28.19
24104;BME280;12278;53.058;9.028;2022-08-19T15:13:35;101030.13;;;41.35;28.37
24104;BME280;12278;53.058;9.028;2022-08-19T15:17:36;101026.13;;;40.35;28.71
24104;BME280;12278;53.058;9.028;2022-08-19T15:21:37;101032.28;;;40.78;27.53
24104;BME280;12278;53.058;9.028;2022-08-19T15:25:38;101057.03;;;41.59;27.43
24104;BME280;12278;53.058;9.028;2022-08-19T15:29:39;101056.91;;;41.52;27.50
24104;BME280;12278;53.058;9.028;2022-08-19T15:33:40;101039.25;;;41.21;27.83
24104;BME280;12278;53.058;9.028;2022-08-19T15:37:42;101027.16;;;40.50;28.38
24104;BME280;12278;53.058;9.028;2022-08-19T15:41:44;101037.31;;;40.99;28.10
24104;BME280;12278;53.058;9.028;2022-08-19T15:45:45;101032.22;;;40.94;27.94
24104;BME280;12278;53.058;9.028;2022-08-19T15:49:47;101043.31;;;40.71;29.67
24104;BME280;12278;53.058;9.028;2022-08-19T15:53:48;101034.94;;;40.71;28.91
24104;BME280;12278;53.058;9.028;2022-08-19T15:57:50;101039.56;;;40.95;29.16
24104;BME280;12278;53.058;9.028;2022-08-19T16:02:10;101048.34;;;41.23;29.08
24104;BME280;12278;53.058;9.028;2022-08-19T16:06:30;101044.28;;;40.94;28.99
24104;BME280;12278;53.058;9.028;2022-08-19T16:10:31;101028.44;;;40.07;29.51
24104;BME280;12278;53.058;9.028;2022-08-19T16:14:34;101023.91;;;39.73;30.24
24104;BME280;12278;53.058;9.028;2022-08-19T16:18:35;100989.53;;;38.14;30.76
24104;BME280;12278;53.058;9.028;2022-08-19T16:22:39;100999.22;;;38.27;31.58
24104;BME280;12278;53.058;9.028;2022-08-19T16:26:41;100972.59;;;35.71;34.00
24104;BME280;12278;53.058;9.028;2022-08-19T16:30:42;100977.03;;;35.45;34.48
24104;BME280;12278;53.058;9.028;2022-08-19T16:34:43;100970.94;;;34.82;34.86
24104;BME280;12278;53.058;9.028;2022-08-19T16:38:44;100968.25;;;34.70;35.35
24104;BME280;12278;53.058;9.028;2022-08-19T16:42:48;100978.41;;;34.41;34.71
24104;BME280;12278;53.058;9.028;2022-08-19T16:46:49;100959.72;;;33.29;36.94
24104;BME280;12278;53.058;9.028;2022-08-19T16:50:51;100968.69;;;32.56;37.72
24104;BME280;12278;53.058;9.028;2022-08-19T16:54:52;100951.06;;;30.73;40.66
24104;BME280;12278;53.058;9.028;2022-08-19T16:58:54;100942.44;;;29.00;44.47
24104;BME280;12278;53.058;9.028;2022-08-19T17:02:56;100949.34;;;27.80;43.99
24104;BME280;12278;53.058;9.028;2022-08-19T17:06:56;100948.78;;;26.99;45.73
24104;BME280;12278;53.058;9.028;2022-08-19T17:10:58;100956.06;;;26.85;47.71
24104;BME280;12278;53.058;9.028;2022-08-19T17:15:03;100961.03;;;26.62;50.39
24104;BME280;12278;53.058;9.028;2022-08-19T17:19:06;100965.38;;;26.33;49.92
24104;BME280;12278;53.058;9.028;2022-08-19T17:23:08;100965.09;;;26.06;50.13
24104;BME280;12278;53.058;9.028;2022-08-19T17:27:09;100964.81;;;25.95;50.35
24104;BME280;12278;53.058;9.028;2022-08-19T17:31:10;100968.06;;;25.86;51.01
24104;BME280;12278;53.058;9.028;2022-08-19T17:35:11;100955.84;;;25.59;51.01
24104;BME280;12278;53.058;9.028;2022-08-19T17:39:12;100959.22;;;25.46;51.31
24104;BME280;12278;53.058;9.028;2022-08-19T17:43:14;100965.00;;;25.23;52.52
24104;BME280;12278;53.058;9.028;2022-08-19T17:47:15;100969.75;;;25.19;53.06
24104;BME280;12278;53.058;9.028;2022-08-19T17:55:19;100962.81;;;24.76;53.68
24104;BME280;12278;53.058;9.028;2022-08-19T17:59:20;100968.19;;;24.78;54.73
24104;BME280;12278;53.058;9.028;2022-08-19T18:03:20;100957.56;;;24.54;55.19
24104;BME280;12278;53.058;9.028;2022-08-19T18:07:23;100946.59;;;24.37;57.28
24104;BME280;12278;53.058;9.028;2022-08-19T18:11:24;100949.63;;;24.31;57.11
24104;BME280;12278;53.058;9.028;2022-08-19T18:15:24;100949.72;;;24.09;57.55
24104;BME280;12278;53.058;9.028;2022-08-19T18:19:25;100953.84;;;23.99;57.87
24104;BME280;12278;53.058;9.028;2022-08-19T18:23:26;100950.59;;;23.91;59.43
24104;BME280;12278;53.058;9.028;2022-08-19T18:27:27;100946.88;;;23.73;59.84
24104;BME280;12278;53.058;9.028;2022-08-19T18:31:28;100941.16;;;23.59;60.48
24104;BME280;12278;53.058;9.028;2022-08-19T18:35:30;100935.56;;;23.41;61.97
24104;BME280;12278;53.058;9.028;2022-08-19T18:39:31;100932.09;;;23.17;62.75
24104;BME280;12278;53.058;9.028;2022-08-19T18:43:50;100935.09;;;23.11;62.99
24104;BME280;12278;53.058;9.028;2022-08-19T18:48:10;100934.75;;;22.99;62.41
24104;BME280;12278;53.058;9.028;2022-08-19T18:52:29;100929.81;;;22.86;64.56
24104;BME280;12278;53.058;9.028;2022-08-19T18:56:32;100926.59;;;22.77;63.99
24104;BME280;12278;53.058;9.028;2022-08-19T19:00:35;100931.31;;;22.72;65.59
24104;BME280;12278;53.058;9.028;2022-08-19T19:04:36;100931.78;;;22.61;64.35
24104;BME280;12278;53.058;9.028;2022-08-19T19:08:38;100933.78;;;22.56;64.70
24104;BME280;12278;53.058;9.028;2022-08-19T19:16:50;100946.94;;;22.45;67.16
24104;BME280;12278;53.058;9.028;2022-08-19T19:20:51;100942.53;;;22.42;66.94
24104;BME280;12278;53.058;9.028;2022-08-19T19:24:52;100947.31;;;22.36;66.70
24104;BME280;12278;53.058;9.028;2022-08-19T19:28:55;100952.84;;;22.33;67.46
24104;BME280;12278;53.058;9.028;2022-08-19T19:32:57;100955.09;;;22.21;68.39
24104;BME280;12278;53.058;9.028;2022-08-19T19:36:59;100950.25;;;22.08;68.65
24104;BME280;12278;53.058;9.028;2022-08-19T19:41:00;100965.88;;;22.00;69.52
24104;BME280;12278;53.058;9.028;2022-08-19T19:45:02;100969.91;;;21.89;69.74
24104;BME280;12278;53.058;9.028;2022-08-19T19:49:04;100977.38;;;21.83;71.01
24104;BME280;12278;53.058;9.028;2022-08-19T19:53:05;100988.38;;;21.80;71.71
24104;BME280;12278;53.058;9.028;2022-08-19T19:57:05;100998.16;;;21.84;71.35
24104;BME280;12278;53.058;9.028;2022-08-19T20:01:07;100986.47;;;21.82;71.67
24104;BME280;12278;53.058;9.028;2022-08-19T20:05:12;100987.78;;;21.72;72.98
24104;BME280;12278;53.058;9.028;2022-08-19T20:09:14;101000.94;;;21.57;72.83
24104;BME280;12278;53.058;9.028;2022-08-19T20:13:18;101001.91;;;21.56;73.30
24104;BME280;12278;53.058;9.028;2022-08-19T20:17:18;100995.84;;;21.48;73.70
24104;BME280;12278;53.058;9.028;2022-08-19T20:21:19;100991.00;;;21.31;74.67
24104;BME280;12278;53.058;9.028;2022-08-19T20:25:20;100998.78;;;21.42;74.64
24104;BME280;12278;53.058;9.028;2022-08-19T20:29:21;101007.22;;;21.33;75.03
24104;BME280;12278;53.058;9.028;2022-08-19T20:33:22;101007.59;;;21.22;76.35
24104;BME280;12278;53.058;9.028;2022-08-19T20:37:23;101015.34;;;21.06;76.32
24104;BME280;12278;53.058;9.028;2022-08-19T20:41:24;101007.50;;;20.97;76.47
24104;BME280;12278;53.058;9.028;2022-08-19T20:45:25;101020.66;;;21.10;76.63
24104;BME280;12278;53.058;9.028;2022-08-19T20:49:26;101017.28;;;21.03;77.40
24104;BME280;12278;53.058;9.028;2022-08-19T20:53:27;101021.88;;;21.01;78.04
24104;BME280;12278;53.058;9.028;2022-08-19T20:57:27;101029.13;;;21.00;77.99
24104;BME280;12278;53.058;9.028;2022-08-19T21:01:29;101024.25;;;20.84;78.25
24104;BME280;12278;53.058;9.028;2022-08-19T21:05:32;101028.69;;;20.86;78.88
24104;BME280;12278;53.058;9.028;2022-08-19T21:09:32;101030.28;;;20.92;78.27
24104;BME280;12278;53.058;9.028;2022-08-19T21:13:33;101035.09;;;20.84;77.75
24104;BME280;12278;53.058;9.028;2022-08-19T21:17:34;101033.22;;;20.86;79.32
24104;BME280;12278;53.058;9.028;2022-08-19T21:21:34;101028.78;;;20.83;78.58